Terminal Aerodrome Forecast
Issued by NWS Mt. Holly, NJ

Home | Current Version | Previous Version | Text Only | Print | Product List | Glossary On
Versions: 1 2 3 4 5 6 7 8 9 10 11 12 13 14 15 16 17 18 19 20
778
FTUS41 KPHI 201121
TAFABE
TAF
KABE 201121Z 2012/2112 VRB03KT P6SM FEW200
     FM201500 26007KT P6SM SCT050
     FM202200 25007KT P6SM BKN050 PROB30 2100/2106 -TSRA BKN040CB
     FM210600 VRB03KT P6SM SCT150=

USA.gov is the U.S. government's official web portal to all federal, state and local government web resources and services.